الصفحة الرئيسية
METAR-TAF:

METAR-TAF

مطار :

Guymon, أوكلاهوما, الولايات المتحدة

دائرة عرض: 36-40-54N, خط طول: 101-30-19W, ارتفاع: 952 متر

مراقبة الطقس الحالي

تاريخ ووقت الإصدار 27 دقيقة قبل الساعة 02:53UTC
ريح 4 عقدة من الشمال
درجة الحرارة 14°درجة مئوية
الرطوبة 63%
ضغط 1020 hPa
الرؤية: 16.1 كم
سماء صافية

METAR: KGUY 230253Z AUTO 36004KT 10SM CLR 14/07 A3013 RMK AO2 SLP179 T01440072 51015

زمن: 22:20 (03:20 UTC)

توقعات

تاريخ ووقت الإصدار 3ساعات و 56 دقيقة قبل الساعة 23:24UTC
التوقعات صالحة من23 الساعة 00 UTC إلى 23 الساعة 24 UTC
ريح 5 عقدة من الشمال/الشمال الشرقي
الرؤية: 10 كم
غيوم مفككة على ارتفاع 20000 قدم
من 23 الساعة 1800 UTC
ريح 12 عقدة من الشرق/الجنوب الشرقي
الرؤية: 10 كم
غيوم مفككة على ارتفاع 3500 قدم

TAF: KGUY 222324Z 2300/2324 03005KT P6SM BKN200 FM231800 12012KT P6SM BKN035

أرصاد الطقس والتوقعات من أكثر من 4000 مطار (تقارير الطقس للمطار METAR والتنبؤ بالطقس بالمطارTAF).

المحطات المتاحة هي النقط الصفراء والحمراء على الخريطة.

حرك المؤشر فوق النقطة لمعرفة اسم المحطة.

ثم انقر لمعرفة أرصاد وتوقعات الطقس.

لتغيير الخارطة: اضغط على الأزرار الخضراء مع رمز الصليب الأسود للتكبير. على الزر الأخضر مع شرطة للتصغير، أو على الأسهم الخضراء للخرائط المجاورة.


METAR-TAF: